sensor_id;sensor_type;location;lat;lon;timestamp;P1;durP1;ratioP1;P2;durP2;ratioP2
22652;SDS011;11493;43.344;26.226;2023-05-10T00:02:07;15.60;;;11.75;;
22652;SDS011;11493;43.344;26.226;2023-05-10T00:04:35;15.57;;;10.27;;
22652;SDS011;11493;43.344;26.226;2023-05-10T00:07:01;18.58;;;12.20;;
22652;SDS011;11493;43.344;26.226;2023-05-10T00:09:29;17.67;;;9.98;;
22652;SDS011;11493;43.344;26.226;2023-05-10T00:11:55;21.35;;;11.82;;
22652;SDS011;11493;43.344;26.226;2023-05-10T00:14:24;15.65;;;10.38;;
22652;SDS011;11493;43.344;26.226;2023-05-10T00:16:51;12.05;;;9.50;;
22652;SDS011;11493;43.344;26.226;2023-05-10T00:19:18;13.55;;;9.00;;
22652;SDS011;11493;43.344;26.226;2023-05-10T00:21:45;12.77;;;10.43;;
22652;SDS011;11493;43.344;26.226;2023-05-10T00:24:13;16.05;;;9.57;;
22652;SDS011;11493;43.344;26.226;2023-05-10T00:26:39;19.27;;;9.77;;
22652;SDS011;11493;43.344;26.226;2023-05-10T00:29:08;25.55;;;9.48;;
22652;SDS011;11493;43.344;26.226;2023-05-10T00:31:36;16.17;;;10.15;;
22652;SDS011;11493;43.344;26.226;2023-05-10T00:34:03;17.98;;;8.50;;
22652;SDS011;11493;43.344;26.226;2023-05-10T00:36:29;12.88;;;8.52;;
22652;SDS011;11493;43.344;26.226;2023-05-10T00:38:58;13.32;;;7.82;;
22652;SDS011;11493;43.344;26.226;2023-05-10T00:41:25;10.80;;;7.32;;
22652;SDS011;11493;43.344;26.226;2023-05-10T00:43:53;11.82;;;7.97;;
22652;SDS011;11493;43.344;26.226;2023-05-10T00:46:20;9.38;;;7.13;;
22652;SDS011;11493;43.344;26.226;2023-05-10T00:48:48;9.07;;;6.95;;
22652;SDS011;11493;43.344;26.226;2023-05-10T00:51:15;13.02;;;7.22;;
22652;SDS011;11493;43.344;26.226;2023-05-10T00:53:44;14.15;;;7.60;;
22652;SDS011;11493;43.344;26.226;2023-05-10T00:56:12;9.02;;;7.50;;
22652;SDS011;11493;43.344;26.226;2023-05-10T00:58:39;10.30;;;7.75;;
22652;SDS011;11493;43.344;26.226;2023-05-10T01:01:07;11.35;;;7.65;;
22652;SDS011;11493;43.344;26.226;2023-05-10T01:03:35;10.23;;;7.18;;
22652;SDS011;11493;43.344;26.226;2023-05-10T01:06:03;14.85;;;7.88;;
22652;SDS011;11493;43.344;26.226;2023-05-10T01:08:30;10.32;;;7.70;;
22652;SDS011;11493;43.344;26.226;2023-05-10T01:10:57;13.25;;;7.90;;
22652;SDS011;11493;43.344;26.226;2023-05-10T01:13:33;12.80;;;8.02;;
22652;SDS011;11493;43.344;26.226;2023-05-10T01:16:02;10.70;;;8.07;;
22652;SDS011;11493;43.344;26.226;2023-05-10T01:18:32;9.75;;;7.40;;
22652;SDS011;11493;43.344;26.226;2023-05-10T01:34:23;10.70;;;6.80;;
22652;SDS011;11493;43.344;26.226;2023-05-10T01:36:55;11.15;;;7.78;;
22652;SDS011;11493;43.344;26.226;2023-05-10T01:39:35;9.52;;;7.00;;
22652;SDS011;11493;43.344;26.226;2023-05-10T01:42:12;13.05;;;7.43;;
22652;SDS011;11493;43.344;26.226;2023-05-10T01:47:40;17.48;;;7.70;;
22652;SDS011;11493;43.344;26.226;2023-05-10T01:50:10;11.27;;;7.25;;
22652;SDS011;11493;43.344;26.226;2023-05-10T01:52:47;9.85;;;6.90;;
22652;SDS011;11493;43.344;26.226;2023-05-10T01:55:21;8.90;;;7.95;;
22652;SDS011;11493;43.344;26.226;2023-05-10T01:57:54;8.20;;;6.97;;
22652;SDS011;11493;43.344;26.226;2023-05-10T02:00:26;7.72;;;6.93;;
22652;SDS011;11493;43.344;26.226;2023-05-10T02:02:55;9.05;;;7.47;;
22652;SDS011;11493;43.344;26.226;2023-05-10T02:05:23;9.98;;;7.43;;
22652;SDS011;11493;43.344;26.226;2023-05-10T02:07:52;12.02;;;7.50;;
22652;SDS011;11493;43.344;26.226;2023-05-10T02:10:20;13.20;;;6.78;;
22652;SDS011;11493;43.344;26.226;2023-05-10T02:12:47;20.83;;;7.75;;
22652;SDS011;11493;43.344;26.226;2023-05-10T02:15:19;11.25;;;6.68;;
22652;SDS011;11493;43.344;26.226;2023-05-10T02:17:49;8.57;;;7.28;;
22652;SDS011;11493;43.344;26.226;2023-05-10T02:20:19;12.70;;;7.40;;
22652;SDS011;11493;43.344;26.226;2023-05-10T02:22:47;19.58;;;7.70;;
22652;SDS011;11493;43.344;26.226;2023-05-10T02:25:19;9.18;;;7.75;;
22652;SDS011;11493;43.344;26.226;2023-05-10T02:27:48;9.20;;;6.72;;
22652;SDS011;11493;43.344;26.226;2023-05-10T02:30:16;8.90;;;8.00;;
22652;SDS011;11493;43.344;26.226;2023-05-10T02:32:45;15.50;;;7.68;;
22652;SDS011;11493;43.344;26.226;2023-05-10T02:35:14;10.43;;;6.68;;
22652;SDS011;11493;43.344;26.226;2023-05-10T02:37:43;10.30;;;7.35;;
22652;SDS011;11493;43.344;26.226;2023-05-10T02:40:11;9.65;;;7.10;;
22652;SDS011;11493;43.344;26.226;2023-05-10T02:42:40;12.63;;;7.22;;
22652;SDS011;11493;43.344;26.226;2023-05-10T02:45:11;9.82;;;7.47;;
22652;SDS011;11493;43.344;26.226;2023-05-10T02:47:41;10.45;;;7.90;;
22652;SDS011;11493;43.344;26.226;2023-05-10T02:50:08;8.68;;;7.72;;
22652;SDS011;11493;43.344;26.226;2023-05-10T02:52:38;11.05;;;8.57;;
22652;SDS011;11493;43.344;26.226;2023-05-10T02:55:09;15.20;;;7.82;;
22652;SDS011;11493;43.344;26.226;2023-05-10T02:57:41;9.38;;;8.00;;
22652;SDS011;11493;43.344;26.226;2023-05-10T03:00:13;11.02;;;7.32;;
22652;SDS011;11493;43.344;26.226;2023-05-10T03:02:40;10.73;;;8.70;;
22652;SDS011;11493;43.344;26.226;2023-05-10T03:05:08;14.95;;;9.27;;
22652;SDS011;11493;43.344;26.226;2023-05-10T03:07:35;10.60;;;8.02;;
22652;SDS011;11493;43.344;26.226;2023-05-10T03:10:02;10.32;;;8.43;;
22652;SDS011;11493;43.344;26.226;2023-05-10T03:12:33;11.02;;;8.65;;
22652;SDS011;11493;43.344;26.226;2023-05-10T03:18:15;15.95;;;9.27;;
22652;SDS011;11493;43.344;26.226;2023-05-10T03:20:51;16.80;;;11.68;;
22652;SDS011;11493;43.344;26.226;2023-05-10T03:23:30;19.95;;;11.85;;
22652;SDS011;11493;43.344;26.226;2023-05-10T03:26:22;19.23;;;12.88;;
22652;SDS011;11493;43.344;26.226;2023-05-10T03:28:58;21.60;;;11.52;;
22652;SDS011;11493;43.344;26.226;2023-05-10T03:31:27;18.92;;;11.77;;
22652;SDS011;11493;43.344;26.226;2023-05-10T03:33:54;17.13;;;11.68;;
22652;SDS011;11493;43.344;26.226;2023-05-10T03:36:25;15.70;;;11.57;;
22652;SDS011;11493;43.344;26.226;2023-05-10T03:38:52;16.20;;;10.18;;
22652;SDS011;11493;43.344;26.226;2023-05-10T03:41:19;18.45;;;10.48;;
22652;SDS011;11493;43.344;26.226;2023-05-10T03:43:47;23.00;;;9.90;;
22652;SDS011;11493;43.344;26.226;2023-05-10T03:46:14;15.05;;;10.00;;
22652;SDS011;11493;43.344;26.226;2023-05-10T03:48:41;24.67;;;9.32;;
22652;SDS011;11493;43.344;26.226;2023-05-10T03:51:08;17.02;;;8.00;;
22652;SDS011;11493;43.344;26.226;2023-05-10T03:53:35;28.92;;;8.98;;
22652;SDS011;11493;43.344;26.226;2023-05-10T03:56:02;14.07;;;8.90;;
22652;SDS011;11493;43.344;26.226;2023-05-10T03:58:29;20.75;;;10.32;;
22652;SDS011;11493;43.344;26.226;2023-05-10T04:00:57;18.88;;;9.27;;
22652;SDS011;11493;43.344;26.226;2023-05-10T04:03:24;11.10;;;8.48;;
22652;SDS011;11493;43.344;26.226;2023-05-10T04:06:01;13.52;;;7.60;;
22652;SDS011;11493;43.344;26.226;2023-05-10T04:08:28;12.23;;;6.47;;
22652;SDS011;11493;43.344;26.226;2023-05-10T04:11:08;11.27;;;8.25;;
22652;SDS011;11493;43.344;26.226;2023-05-10T04:13:37;8.70;;;7.03;;
22652;SDS011;11493;43.344;26.226;2023-05-10T04:16:04;10.43;;;7.22;;
22652;SDS011;11493;43.344;26.226;2023-05-10T04:18:31;10.02;;;7.55;;
22652;SDS011;11493;43.344;26.226;2023-05-10T04:20:59;13.52;;;7.95;;
22652;SDS011;11493;43.344;26.226;2023-05-10T04:23:27;8.35;;;7.47;;
22652;SDS011;11493;43.344;26.226;2023-05-10T04:26:00;13.70;;;7.85;;
22652;SDS011;11493;43.344;26.226;2023-05-10T04:28:28;12.30;;;9.05;;
22652;SDS011;11493;43.344;26.226;2023-05-10T04:31:05;14.70;;;10.15;;
22652;SDS011;11493;43.344;26.226;2023-05-10T04:33:33;13.38;;;9.02;;
22652;SDS011;11493;43.344;26.226;2023-05-10T04:36:01;17.48;;;9.95;;
22652;SDS011;11493;43.344;26.226;2023-05-10T04:38:28;19.85;;;8.65;;
22652;SDS011;11493;43.344;26.226;2023-05-10T04:41:05;11.57;;;8.88;;
22652;SDS011;11493;43.344;26.226;2023-05-10T04:43:37;15.67;;;9.40;;
22652;SDS011;11493;43.344;26.226;2023-05-10T04:46:05;15.82;;;9.30;;
22652;SDS011;11493;43.344;26.226;2023-05-10T04:48:32;16.95;;;9.20;;
22652;SDS011;11493;43.344;26.226;2023-05-10T04:51:00;11.10;;;9.02;;
22652;SDS011;11493;43.344;26.226;2023-05-10T04:53:52;16.42;;;8.93;;
22652;SDS011;11493;43.344;26.226;2023-05-10T04:57:25;30.13;;;10.13;;
22652;SDS011;11493;43.344;26.226;2023-05-10T04:59:52;24.25;;;9.65;;
22652;SDS011;11493;43.344;26.226;2023-05-10T05:02:19;22.15;;;9.98;;
22652;SDS011;11493;43.344;26.226;2023-05-10T05:04:46;13.93;;;8.35;;
22652;SDS011;11493;43.344;26.226;2023-05-10T05:07:13;16.50;;;9.10;;
22652;SDS011;11493;43.344;26.226;2023-05-10T05:09:42;14.88;;;7.90;;
22652;SDS011;11493;43.344;26.226;2023-05-10T05:12:09;14.13;;;8.32;;
22652;SDS011;11493;43.344;26.226;2023-05-10T05:17:07;45.15;;;8.77;;
22652;SDS011;11493;43.344;26.226;2023-05-10T05:19:34;13.32;;;9.10;;
22652;SDS011;11493;43.344;26.226;2023-05-10T05:22:02;24.10;;;9.50;;
22652;SDS011;11493;43.344;26.226;2023-05-10T05:24:29;11.45;;;6.93;;
22652;SDS011;11493;43.344;26.226;2023-05-10T05:26:56;9.98;;;8.40;;
22652;SDS011;11493;43.344;26.226;2023-05-10T05:29:23;11.00;;;7.38;;
22652;SDS011;11493;43.344;26.226;2023-05-10T05:31:49;22.20;;;9.10;;
22652;SDS011;11493;43.344;26.226;2023-05-10T05:34:20;12.10;;;8.05;;
22652;SDS011;11493;43.344;26.226;2023-05-10T05:36:47;10.90;;;6.65;;
22652;SDS011;11493;43.344;26.226;2023-05-10T05:39:14;9.85;;;5.75;;
22652;SDS011;11493;43.344;26.226;2023-05-10T05:41:41;10.15;;;7.65;;
22652;SDS011;11493;43.344;26.226;2023-05-10T05:44:09;14.48;;;5.80;;
22652;SDS011;11493;43.344;26.226;2023-05-10T05:46:36;13.15;;;6.15;;
22652;SDS011;11493;43.344;26.226;2023-05-10T05:49:03;10.85;;;6.90;;
22652;SDS011;11493;43.344;26.226;2023-05-10T05:51:30;13.65;;;6.60;;
22652;SDS011;11493;43.344;26.226;2023-05-10T05:53:57;14.75;;;6.82;;
22652;SDS011;11493;43.344;26.226;2023-05-10T05:56:24;9.35;;;6.38;;
22652;SDS011;11493;43.344;26.226;2023-05-10T05:58:51;12.65;;;6.72;;
22652;SDS011;11493;43.344;26.226;2023-05-10T06:01:18;7.80;;;5.57;;
22652;SDS011;11493;43.344;26.226;2023-05-10T06:03:45;6.80;;;5.80;;
22652;SDS011;11493;43.344;26.226;2023-05-10T06:06:12;11.20;;;6.53;;
22652;SDS011;11493;43.344;26.226;2023-05-10T06:08:39;6.18;;;5.55;;
22652;SDS011;11493;43.344;26.226;2023-05-10T06:11:06;7.80;;;5.30;;
22652;SDS011;11493;43.344;26.226;2023-05-10T06:13:33;7.97;;;5.20;;
22652;SDS011;11493;43.344;26.226;2023-05-10T06:16:04;5.10;;;3.85;;
22652;SDS011;11493;43.344;26.226;2023-05-10T06:18:32;5.70;;;4.60;;
22652;SDS011;11493;43.344;26.226;2023-05-10T06:20:58;12.77;;;4.03;;
22652;SDS011;11493;43.344;26.226;2023-05-10T06:23:26;5.55;;;3.90;;
22652;SDS011;11493;43.344;26.226;2023-05-10T06:25:53;5.32;;;3.53;;
22652;SDS011;11493;43.344;26.226;2023-05-10T06:28:20;8.70;;;3.25;;
22652;SDS011;11493;43.344;26.226;2023-05-10T06:30:47;5.68;;;3.20;;
22652;SDS011;11493;43.344;26.226;2023-05-10T06:33:14;7.72;;;3.28;;
22652;SDS011;11493;43.344;26.226;2023-05-10T06:35:42;8.10;;;3.08;;
22652;SDS011;11493;43.344;26.226;2023-05-10T06:38:09;7.65;;;2.33;;
22652;SDS011;11493;43.344;26.226;2023-05-10T06:40:36;5.80;;;2.50;;
22652;SDS011;11493;43.344;26.226;2023-05-10T06:43:03;9.65;;;2.65;;
22652;SDS011;11493;43.344;26.226;2023-05-10T06:45:30;6.03;;;2.40;;
22652;SDS011;11493;43.344;26.226;2023-05-10T06:47:58;3.50;;;1.90;;
22652;SDS011;11493;43.344;26.226;2023-05-10T06:50:25;5.05;;;2.70;;
22652;SDS011;11493;43.344;26.226;2023-05-10T06:52:52;4.28;;;3.15;;
22652;SDS011;11493;43.344;26.226;2023-05-10T06:55:19;6.15;;;2.58;;
22652;SDS011;11493;43.344;26.226;2023-05-10T06:57:46;5.00;;;2.97;;
22652;SDS011;11493;43.344;26.226;2023-05-10T07:00:14;2.72;;;2.05;;
22652;SDS011;11493;43.344;26.226;2023-05-10T07:02:41;3.55;;;2.35;;
22652;SDS011;11493;43.344;26.226;2023-05-10T07:05:09;4.63;;;1.63;;
22652;SDS011;11493;43.344;26.226;2023-05-10T07:07:36;5.95;;;2.10;;
22652;SDS011;11493;43.344;26.226;2023-05-10T07:10:03;3.25;;;1.90;;
22652;SDS011;11493;43.344;26.226;2023-05-10T07:12:30;6.43;;;2.03;;
22652;SDS011;11493;43.344;26.226;2023-05-10T07:14:57;23.10;;;2.70;;
22652;SDS011;11493;43.344;26.226;2023-05-10T07:17:24;3.08;;;1.88;;
22652;SDS011;11493;43.344;26.226;2023-05-10T07:19:51;3.08;;;2.00;;
22652;SDS011;11493;43.344;26.226;2023-05-10T07:22:18;4.70;;;1.98;;
22652;SDS011;11493;43.344;26.226;2023-05-10T07:24:45;4.20;;;2.38;;
22652;SDS011;11493;43.344;26.226;2023-05-10T07:27:12;4.75;;;2.30;;
22652;SDS011;11493;43.344;26.226;2023-05-10T07:29:39;4.57;;;2.38;;
22652;SDS011;11493;43.344;26.226;2023-05-10T07:32:06;4.60;;;2.03;;
22652;SDS011;11493;43.344;26.226;2023-05-10T07:34:33;4.38;;;2.45;;
22652;SDS011;11493;43.344;26.226;2023-05-10T07:37:00;3.05;;;2.67;;
22652;SDS011;11493;43.344;26.226;2023-05-10T07:39:28;5.35;;;3.15;;
22652;SDS011;11493;43.344;26.226;2023-05-10T07:41:55;4.55;;;2.97;;
22652;SDS011;11493;43.344;26.226;2023-05-10T07:44:22;9.52;;;2.50;;
22652;SDS011;11493;43.344;26.226;2023-05-10T07:46:49;3.25;;;2.40;;
22652;SDS011;11493;43.344;26.226;2023-05-10T07:49:16;7.50;;;2.75;;
22652;SDS011;11493;43.344;26.226;2023-05-10T07:51:43;5.70;;;3.33;;
22652;SDS011;11493;43.344;26.226;2023-05-10T07:54:10;3.75;;;2.58;;
22652;SDS011;11493;43.344;26.226;2023-05-10T07:56:37;9.38;;;2.70;;
22652;SDS011;11493;43.344;26.226;2023-05-10T07:59:06;3.97;;;2.40;;
22652;SDS011;11493;43.344;26.226;2023-05-10T08:01:36;10.57;;;2.85;;
22652;SDS011;11493;43.344;26.226;2023-05-10T08:04:03;8.55;;;2.72;;
22652;SDS011;11493;43.344;26.226;2023-05-10T08:06:30;4.25;;;2.50;;
22652;SDS011;11493;43.344;26.226;2023-05-10T08:08:57;7.40;;;2.35;;
22652;SDS011;11493;43.344;26.226;2023-05-10T08:11:24;6.47;;;3.20;;
22652;SDS011;11493;43.344;26.226;2023-05-10T08:13:51;9.50;;;3.28;;
22652;SDS011;11493;43.344;26.226;2023-05-10T08:16:19;3.78;;;2.92;;
22652;SDS011;11493;43.344;26.226;2023-05-10T08:18:47;4.40;;;2.90;;
22652;SDS011;11493;43.344;26.226;2023-05-10T08:21:15;7.20;;;3.20;;
22652;SDS011;11493;43.344;26.226;2023-05-10T08:23:42;9.25;;;3.10;;
22652;SDS011;11493;43.344;26.226;2023-05-10T08:26:10;4.15;;;2.80;;
22652;SDS011;11493;43.344;26.226;2023-05-10T08:28:38;3.63;;;2.75;;
22652;SDS011;11493;43.344;26.226;2023-05-10T08:31:05;3.67;;;2.20;;
22652;SDS011;11493;43.344;26.226;2023-05-10T08:33:32;6.97;;;2.42;;
22652;SDS011;11493;43.344;26.226;2023-05-10T08:35:59;4.47;;;2.60;;
22652;SDS011;11493;43.344;26.226;2023-05-10T08:38:26;2.42;;;2.22;;
22652;SDS011;11493;43.344;26.226;2023-05-10T08:40:54;4.22;;;2.17;;
22652;SDS011;11493;43.344;26.226;2023-05-10T08:43:28;6.38;;;2.85;;
22652;SDS011;11493;43.344;26.226;2023-05-10T08:45:56;3.83;;;3.45;;
22652;SDS011;11493;43.344;26.226;2023-05-10T08:48:31;2.85;;;2.53;;
22652;SDS011;11493;43.344;26.226;2023-05-10T08:51:02;6.15;;;2.60;;
22652;SDS011;11493;43.344;26.226;2023-05-10T08:53:30;5.55;;;3.28;;
22652;SDS011;11493;43.344;26.226;2023-05-10T08:56:02;4.18;;;2.53;;
22652;SDS011;11493;43.344;26.226;2023-05-10T08:58:29;6.53;;;2.90;;
22652;SDS011;11493;43.344;26.226;2023-05-10T09:00:57;7.40;;;2.80;;
22652;SDS011;11493;43.344;26.226;2023-05-10T09:03:25;5.70;;;2.25;;
22652;SDS011;11493;43.344;26.226;2023-05-10T09:05:53;6.80;;;2.50;;
22652;SDS011;11493;43.344;26.226;2023-05-10T09:08:22;2.80;;;2.22;;
22652;SDS011;11493;43.344;26.226;2023-05-10T09:13:23;5.68;;;1.92;;
22652;SDS011;11493;43.344;26.226;2023-05-10T09:15:51;3.30;;;2.25;;
22652;SDS011;11493;43.344;26.226;2023-05-10T09:18:19;2.90;;;1.70;;
22652;SDS011;11493;43.344;26.226;2023-05-10T09:20:46;2.33;;;1.63;;
22652;SDS011;11493;43.344;26.226;2023-05-10T09:23:13;9.35;;;1.90;;
22652;SDS011;11493;43.344;26.226;2023-05-10T09:25:41;5.68;;;1.70;;
22652;SDS011;11493;43.344;26.226;2023-05-10T09:28:08;4.10;;;2.00;;
22652;SDS011;11493;43.344;26.226;2023-05-10T09:30:36;2.78;;;1.80;;
22652;SDS011;11493;43.344;26.226;2023-05-10T09:33:03;4.45;;;1.75;;
22652;SDS011;11493;43.344;26.226;2023-05-10T09:35:31;7.25;;;1.85;;
22652;SDS011;11493;43.344;26.226;2023-05-10T09:38:03;3.95;;;1.42;;
22652;SDS011;11493;43.344;26.226;2023-05-10T09:40:31;1.63;;;1.52;;
22652;SDS011;11493;43.344;26.226;2023-05-10T09:42:59;4.10;;;1.48;;
22652;SDS011;11493;43.344;26.226;2023-05-10T09:45:29;4.95;;;1.30;;
22652;SDS011;11493;43.344;26.226;2023-05-10T09:47:57;1.52;;;1.40;;
22652;SDS011;11493;43.344;26.226;2023-05-10T09:50:26;1.65;;;1.50;;
22652;SDS011;11493;43.344;26.226;2023-05-10T09:52:56;4.03;;;1.70;;
22652;SDS011;11493;43.344;26.226;2023-05-10T09:55:26;1.50;;;1.40;;
22652;SDS011;11493;43.344;26.226;2023-05-10T09:58:04;2.97;;;1.70;;
22652;SDS011;11493;43.344;26.226;2023-05-10T10:00:39;4.55;;;1.77;;
22652;SDS011;11493;43.344;26.226;2023-05-10T10:03:14;2.13;;;1.50;;
22652;SDS011;11493;43.344;26.226;2023-05-10T10:05:43;7.07;;;1.40;;
22652;SDS011;11493;43.344;26.226;2023-05-10T10:08:11;1.80;;;1.20;;
22652;SDS011;11493;43.344;26.226;2023-05-10T10:10:39;2.60;;;1.55;;
22652;SDS011;11493;43.344;26.226;2023-05-10T10:13:07;2.55;;;1.58;;
22652;SDS011;11493;43.344;26.226;2023-05-10T10:15:35;2.47;;;1.95;;
22652;SDS011;11493;43.344;26.226;2023-05-10T10:18:02;2.47;;;1.80;;
22652;SDS011;11493;43.344;26.226;2023-05-10T10:20:33;3.03;;;1.63;;
22652;SDS011;11493;43.344;26.226;2023-05-10T10:23:00;2.47;;;1.75;;
22652;SDS011;11493;43.344;26.226;2023-05-10T10:25:27;4.03;;;1.80;;
22652;SDS011;11493;43.344;26.226;2023-05-10T10:33:17;5.38;;;1.42;;
22652;SDS011;11493;43.344;26.226;2023-05-10T10:35:58;3.00;;;1.50;;
22652;SDS011;11493;43.344;26.226;2023-05-10T10:38:35;3.08;;;1.50;;
22652;SDS011;11493;43.344;26.226;2023-05-10T10:49:25;3.45;;;1.67;;
22652;SDS011;11493;43.344;26.226;2023-05-10T10:54:53;5.18;;;1.52;;
22652;SDS011;11493;43.344;26.226;2023-05-10T10:57:28;5.18;;;1.90;;
22652;SDS011;11493;43.344;26.226;2023-05-10T11:02:45;4.15;;;1.67;;
22652;SDS011;11493;43.344;26.226;2023-05-10T11:10:38;4.20;;;1.80;;
22652;SDS011;11493;43.344;26.226;2023-05-10T11:13:07;1.45;;;1.33;;
22652;SDS011;11493;43.344;26.226;2023-05-10T11:15:40;10.75;;;1.40;;
22652;SDS011;11493;43.344;26.226;2023-05-10T11:18:18;5.75;;;1.30;;
22652;SDS011;11493;43.344;26.226;2023-05-10T11:23:23;2.83;;;1.30;;
22652;SDS011;11493;43.344;26.226;2023-05-10T11:25:56;10.63;;;1.38;;
22652;SDS011;11493;43.344;26.226;2023-05-10T11:28:25;15.02;;;1.88;;
22652;SDS011;11493;43.344;26.226;2023-05-10T11:30:53;3.40;;;1.50;;
22652;SDS011;11493;43.344;26.226;2023-05-10T11:33:21;5.45;;;1.63;;
22652;SDS011;11493;43.344;26.226;2023-05-10T11:35:48;2.22;;;1.65;;
22652;SDS011;11493;43.344;26.226;2023-05-10T11:38:15;3.83;;;1.70;;
22652;SDS011;11493;43.344;26.226;2023-05-10T11:40:42;6.00;;;1.30;;
22652;SDS011;11493;43.344;26.226;2023-05-10T11:43:10;2.28;;;1.67;;
22652;SDS011;11493;43.344;26.226;2023-05-10T11:45:37;2.65;;;1.50;;
22652;SDS011;11493;43.344;26.226;2023-05-10T11:48:04;1.80;;;1.23;;
22652;SDS011;11493;43.344;26.226;2023-05-10T11:50:32;7.60;;;1.52;;
22652;SDS011;11493;43.344;26.226;2023-05-10T11:52:59;3.50;;;2.25;;
22652;SDS011;11493;43.344;26.226;2023-05-10T11:55:26;6.88;;;4.50;;
22652;SDS011;11493;43.344;26.226;2023-05-10T11:57:53;2.03;;;1.50;;
22652;SDS011;11493;43.344;26.226;2023-05-10T12:00:21;2.70;;;2.15;;
22652;SDS011;11493;43.344;26.226;2023-05-10T12:02:48;6.15;;;2.75;;
22652;SDS011;11493;43.344;26.226;2023-05-10T12:05:15;1.90;;;1.40;;
22652;SDS011;11493;43.344;26.226;2023-05-10T12:07:43;1.85;;;1.50;;
22652;SDS011;11493;43.344;26.226;2023-05-10T12:10:11;4.45;;;1.40;;
22652;SDS011;11493;43.344;26.226;2023-05-10T12:12:45;2.90;;;1.40;;
22652;SDS011;11493;43.344;26.226;2023-05-10T12:17:48;1.67;;;1.42;;
22652;SDS011;11493;43.344;26.226;2023-05-10T12:22:47;1.77;;;1.42;;
22652;SDS011;11493;43.344;26.226;2023-05-10T12:25:18;6.20;;;1.30;;
22652;SDS011;11493;43.344;26.226;2023-05-10T12:27:47;3.05;;;1.30;;
22652;SDS011;11493;43.344;26.226;2023-05-10T12:30:28;3.33;;;1.20;;
22652;SDS011;11493;43.344;26.226;2023-05-10T12:33:00;3.53;;;1.33;;
22652;SDS011;11493;43.344;26.226;2023-05-10T12:35:31;6.57;;;1.52;;
22652;SDS011;11493;43.344;26.226;2023-05-10T12:37:59;1.77;;;1.20;;
22652;SDS011;11493;43.344;26.226;2023-05-10T12:40:26;2.78;;;1.50;;
22652;SDS011;11493;43.344;26.226;2023-05-10T12:42:53;4.18;;;1.52;;
22652;SDS011;11493;43.344;26.226;2023-05-10T12:45:19;2.47;;;1.30;;
22652;SDS011;11493;43.344;26.226;2023-05-10T12:47:47;3.75;;;1.40;;
22652;SDS011;11493;43.344;26.226;2023-05-10T12:50:14;7.15;;;2.00;;
22652;SDS011;11493;43.344;26.226;2023-05-10T12:52:41;2.17;;;1.30;;
22652;SDS011;11493;43.344;26.226;2023-05-10T12:55:08;2.17;;;1.50;;
22652;SDS011;11493;43.344;26.226;2023-05-10T12:57:35;6.03;;;1.50;;
22652;SDS011;11493;43.344;26.226;2023-05-10T13:00:02;1.55;;;1.25;;
22652;SDS011;11493;43.344;26.226;2023-05-10T13:02:31;1.23;;;1.10;;
22652;SDS011;11493;43.344;26.226;2023-05-10T13:04:58;2.92;;;1.30;;
22652;SDS011;11493;43.344;26.226;2023-05-10T13:07:25;5.50;;;1.77;;
22652;SDS011;11493;43.344;26.226;2023-05-10T13:09:52;2.63;;;1.35;;
22652;SDS011;11493;43.344;26.226;2023-05-10T13:12:19;5.10;;;1.52;;
22652;SDS011;11493;43.344;26.226;2023-05-10T13:14:46;1.83;;;1.20;;
22652;SDS011;11493;43.344;26.226;2023-05-10T13:17:13;2.25;;;1.23;;
22652;SDS011;11493;43.344;26.226;2023-05-10T13:19:40;2.22;;;1.27;;
22652;SDS011;11493;43.344;26.226;2023-05-10T13:22:07;3.95;;;1.52;;
22652;SDS011;11493;43.344;26.226;2023-05-10T13:24:35;2.00;;;1.30;;
22652;SDS011;11493;43.344;26.226;2023-05-10T13:27:02;2.17;;;1.30;;
22652;SDS011;11493;43.344;26.226;2023-05-10T13:29:29;2.58;;;1.40;;
22652;SDS011;11493;43.344;26.226;2023-05-10T13:31:56;9.15;;;3.53;;
22652;SDS011;11493;43.344;26.226;2023-05-10T13:34:23;8.60;;;2.00;;
22652;SDS011;11493;43.344;26.226;2023-05-10T13:36:50;2.72;;;1.27;;
22652;SDS011;11493;43.344;26.226;2023-05-10T13:39:17;1.05;;;0.98;;
22652;SDS011;11493;43.344;26.226;2023-05-10T13:41:44;1.23;;;1.00;;
22652;SDS011;11493;43.344;26.226;2023-05-10T13:44:12;7.65;;;1.83;;
22652;SDS011;11493;43.344;26.226;2023-05-10T13:46:40;1.80;;;1.48;;
22652;SDS011;11493;43.344;26.226;2023-05-10T13:49:09;2.15;;;1.42;;
22652;SDS011;11493;43.344;26.226;2023-05-10T13:51:36;2.40;;;1.40;;
22652;SDS011;11493;43.344;26.226;2023-05-10T13:54:03;1.27;;;1.00;;
22652;SDS011;11493;43.344;26.226;2023-05-10T13:56:30;5.72;;;1.50;;
22652;SDS011;11493;43.344;26.226;2023-05-10T13:58:57;1.60;;;1.23;;
22652;SDS011;11493;43.344;26.226;2023-05-10T14:01:24;9.15;;;1.30;;
22652;SDS011;11493;43.344;26.226;2023-05-10T14:03:51;2.97;;;1.25;;
22652;SDS011;11493;43.344;26.226;2023-05-10T14:06:18;5.10;;;1.40;;
22652;SDS011;11493;43.344;26.226;2023-05-10T14:08:46;1.17;;;1.00;;
22652;SDS011;11493;43.344;26.226;2023-05-10T14:11:14;7.63;;;1.35;;
22652;SDS011;11493;43.344;26.226;2023-05-10T14:13:41;3.53;;;2.10;;
22652;SDS011;11493;43.344;26.226;2023-05-10T14:16:07;2.90;;;1.20;;
22652;SDS011;11493;43.344;26.226;2023-05-10T14:18:34;1.60;;;1.10;;
22652;SDS011;11493;43.344;26.226;2023-05-10T14:21:02;1.98;;;1.20;;
22652;SDS011;11493;43.344;26.226;2023-05-10T14:23:30;6.22;;;1.10;;
22652;SDS011;11493;43.344;26.226;2023-05-10T14:28:29;2.42;;;1.20;;
22652;SDS011;11493;43.344;26.226;2023-05-10T14:30:56;1.45;;;1.25;;
22652;SDS011;11493;43.344;26.226;2023-05-10T14:33:23;1.02;;;0.93;;
22652;SDS011;11493;43.344;26.226;2023-05-10T14:35:50;3.47;;;1.20;;
22652;SDS011;11493;43.344;26.226;2023-05-10T14:38:20;1.88;;;1.17;;
22652;SDS011;11493;43.344;26.226;2023-05-10T14:40:47;5.68;;;1.30;;
22652;SDS011;11493;43.344;26.226;2023-05-10T14:43:14;1.58;;;1.10;;
22652;SDS011;11493;43.344;26.226;2023-05-10T14:45:41;1.90;;;1.10;;
22652;SDS011;11493;43.344;26.226;2023-05-10T14:48:08;1.80;;;1.42;;
22652;SDS011;11493;43.344;26.226;2023-05-10T14:50:38;2.03;;;1.30;;
22652;SDS011;11493;43.344;26.226;2023-05-10T14:53:06;1.30;;;1.20;;
22652;SDS011;11493;43.344;26.226;2023-05-10T14:55:33;2.20;;;1.10;;
22652;SDS011;11493;43.344;26.226;2023-05-10T14:58:02;1.38;;;1.27;;
22652;SDS011;11493;43.344;26.226;2023-05-10T15:00:29;2.05;;;1.30;;
22652;SDS011;11493;43.344;26.226;2023-05-10T15:02:58;2.78;;;1.55;;
22652;SDS011;11493;43.344;26.226;2023-05-10T15:05:25;2.30;;;1.63;;
22652;SDS011;11493;43.344;26.226;2023-05-10T15:07:53;9.10;;;1.50;;
22652;SDS011;11493;43.344;26.226;2023-05-10T15:10:20;4.82;;;1.80;;
22652;SDS011;11493;43.344;26.226;2023-05-10T15:12:47;4.20;;;1.65;;
22652;SDS011;11493;43.344;26.226;2023-05-10T15:15:14;2.55;;;1.70;;
22652;SDS011;11493;43.344;26.226;2023-05-10T15:17:41;7.00;;;1.85;;
22652;SDS011;11493;43.344;26.226;2023-05-10T15:20:09;4.68;;;1.67;;
22652;SDS011;11493;43.344;26.226;2023-05-10T15:22:36;8.30;;;2.22;;
22652;SDS011;11493;43.344;26.226;2023-05-10T15:25:03;2.72;;;1.50;;
22652;SDS011;11493;43.344;26.226;2023-05-10T15:27:30;2.38;;;1.33;;
22652;SDS011;11493;43.344;26.226;2023-05-10T15:29:57;3.13;;;1.88;;
22652;SDS011;11493;43.344;26.226;2023-05-10T15:32:25;7.97;;;2.20;;
22652;SDS011;11493;43.344;26.226;2023-05-10T15:34:52;3.58;;;1.80;;
22652;SDS011;11493;43.344;26.226;2023-05-10T15:37:19;6.30;;;2.22;;